sensor_id;sensor_type;location;lat;lon;timestamp;temperature;humidity
21108;DHT22;10712;52.944;9.098;2024-03-06T00:02:09;4.50;84.10
21108;DHT22;10712;52.944;9.098;2024-03-06T00:04:34;4.50;84.20
21108;DHT22;10712;52.944;9.098;2024-03-06T00:07:01;4.50;84.30
21108;DHT22;10712;52.944;9.098;2024-03-06T00:09:27;4.50;84.30
21108;DHT22;10712;52.944;9.098;2024-03-06T00:11:53;4.50;84.40
21108;DHT22;10712;52.944;9.098;2024-03-06T00:14:20;4.50;84.40
21108;DHT22;10712;52.944;9.098;2024-03-06T00:16:50;4.50;84.40
21108;DHT22;10712;52.944;9.098;2024-03-06T00:19:19;4.50;84.50
21108;DHT22;10712;52.944;9.098;2024-03-06T00:21:46;4.50;84.50
21108;DHT22;10712;52.944;9.098;2024-03-06T00:24:13;4.50;84.50
21108;DHT22;10712;52.944;9.098;2024-03-06T00:26:41;4.50;84.60
21108;DHT22;10712;52.944;9.098;2024-03-06T00:29:08;4.50;84.50
21108;DHT22;10712;52.944;9.098;2024-03-06T00:31:34;4.50;84.50
21108;DHT22;10712;52.944;9.098;2024-03-06T00:34:00;4.50;84.60
21108;DHT22;10712;52.944;9.098;2024-03-06T00:36:26;4.50;84.70
21108;DHT22;10712;52.944;9.098;2024-03-06T00:38:51;4.50;84.70
21108;DHT22;10712;52.944;9.098;2024-03-06T00:41:17;4.50;84.80
21108;DHT22;10712;52.944;9.098;2024-03-06T00:43:43;4.50;85.00
21108;DHT22;10712;52.944;9.098;2024-03-06T00:46:09;4.50;85.10
21108;DHT22;10712;52.944;9.098;2024-03-06T00:48:35;4.50;85.10
21108;DHT22;10712;52.944;9.098;2024-03-06T00:51:00;4.50;85.10
21108;DHT22;10712;52.944;9.098;2024-03-06T00:53:26;4.50;85.00
21108;DHT22;10712;52.944;9.098;2024-03-06T00:55:52;4.50;85.20
21108;DHT22;10712;52.944;9.098;2024-03-06T00:58:17;4.50;85.20
21108;DHT22;10712;52.944;9.098;2024-03-06T01:00:43;4.50;85.20
21108;DHT22;10712;52.944;9.098;2024-03-06T01:03:09;4.50;85.20
21108;DHT22;10712;52.944;9.098;2024-03-06T01:05:35;4.50;85.20
21108;DHT22;10712;52.944;9.098;2024-03-06T01:08:00;4.50;85.30
21108;DHT22;10712;52.944;9.098;2024-03-06T01:10:26;4.50;85.30
21108;DHT22;10712;52.944;9.098;2024-03-06T01:12:52;4.40;85.50
21108;DHT22;10712;52.944;9.098;2024-03-06T01:15:18;4.40;85.40
21108;DHT22;10712;52.944;9.098;2024-03-06T01:17:44;4.40;85.40
21108;DHT22;10712;52.944;9.098;2024-03-06T01:20:10;4.50;85.40
21108;DHT22;10712;52.944;9.098;2024-03-06T01:22:36;4.50;85.40
21108;DHT22;10712;52.944;9.098;2024-03-06T01:25:02;4.50;85.40
21108;DHT22;10712;52.944;9.098;2024-03-06T01:27:29;4.40;85.40
21108;DHT22;10712;52.944;9.098;2024-03-06T01:29:54;4.40;85.40
21108;DHT22;10712;52.944;9.098;2024-03-06T01:32:20;4.40;85.50
21108;DHT22;10712;52.944;9.098;2024-03-06T01:34:46;4.40;85.50
21108;DHT22;10712;52.944;9.098;2024-03-06T01:37:12;4.40;85.60
21108;DHT22;10712;52.944;9.098;2024-03-06T01:39:38;4.40;85.70
21108;DHT22;10712;52.944;9.098;2024-03-06T01:42:03;4.40;85.80
21108;DHT22;10712;52.944;9.098;2024-03-06T01:44:29;4.40;85.80
21108;DHT22;10712;52.944;9.098;2024-03-06T01:46:55;4.40;85.70
21108;DHT22;10712;52.944;9.098;2024-03-06T01:49:23;4.40;85.70
21108;DHT22;10712;52.944;9.098;2024-03-06T01:51:56;4.40;85.70
21108;DHT22;10712;52.944;9.098;2024-03-06T01:54:23;4.40;85.70
21108;DHT22;10712;52.944;9.098;2024-03-06T01:56:51;4.30;85.70
21108;DHT22;10712;52.944;9.098;2024-03-06T01:59:21;4.30;85.90
21108;DHT22;10712;52.944;9.098;2024-03-06T02:01:53;4.30;86.00
21108;DHT22;10712;52.944;9.098;2024-03-06T02:04:19;4.30;85.90
21108;DHT22;10712;52.944;9.098;2024-03-06T02:06:46;4.30;86.10
21108;DHT22;10712;52.944;9.098;2024-03-06T02:09:13;4.30;86.10
21108;DHT22;10712;52.944;9.098;2024-03-06T02:11:42;4.30;86.20
21108;DHT22;10712;52.944;9.098;2024-03-06T02:14:08;4.30;86.20
21108;DHT22;10712;52.944;9.098;2024-03-06T02:16:36;4.30;86.20
21108;DHT22;10712;52.944;9.098;2024-03-06T02:19:04;4.30;86.20
21108;DHT22;10712;52.944;9.098;2024-03-06T02:21:30;4.30;86.10
21108;DHT22;10712;52.944;9.098;2024-03-06T02:23:57;4.30;86.10
21108;DHT22;10712;52.944;9.098;2024-03-06T02:26:24;4.30;86.00
21108;DHT22;10712;52.944;9.098;2024-03-06T02:28:51;4.30;86.00
21108;DHT22;10712;52.944;9.098;2024-03-06T02:31:18;4.30;86.00
21108;DHT22;10712;52.944;9.098;2024-03-06T02:33:46;4.30;86.10
21108;DHT22;10712;52.944;9.098;2024-03-06T02:36:18;4.30;86.10
21108;DHT22;10712;52.944;9.098;2024-03-06T02:38:45;4.30;86.10
21108;DHT22;10712;52.944;9.098;2024-03-06T02:41:11;4.20;86.10
21108;DHT22;10712;52.944;9.098;2024-03-06T02:43:39;4.20;86.10
21108;DHT22;10712;52.944;9.098;2024-03-06T02:46:05;4.20;86.20
21108;DHT22;10712;52.944;9.098;2024-03-06T02:48:31;4.20;86.20
21108;DHT22;10712;52.944;9.098;2024-03-06T02:50:57;4.30;86.30
21108;DHT22;10712;52.944;9.098;2024-03-06T02:53:23;4.30;86.30
21108;DHT22;10712;52.944;9.098;2024-03-06T02:55:50;4.30;86.30
21108;DHT22;10712;52.944;9.098;2024-03-06T02:58:16;4.30;86.30
21108;DHT22;10712;52.944;9.098;2024-03-06T03:00:42;4.30;86.30
21108;DHT22;10712;52.944;9.098;2024-03-06T03:03:09;4.30;86.20
21108;DHT22;10712;52.944;9.098;2024-03-06T03:05:37;4.30;86.20
21108;DHT22;10712;52.944;9.098;2024-03-06T03:08:05;4.20;86.20
21108;DHT22;10712;52.944;9.098;2024-03-06T03:10:32;4.30;86.20
21108;DHT22;10712;52.944;9.098;2024-03-06T03:13:00;4.20;86.20
21108;DHT22;10712;52.944;9.098;2024-03-06T03:15:26;4.30;86.10
21108;DHT22;10712;52.944;9.098;2024-03-06T03:17:51;4.20;86.20
21108;DHT22;10712;52.944;9.098;2024-03-06T03:20:17;4.20;86.20
21108;DHT22;10712;52.944;9.098;2024-03-06T03:22:43;4.20;86.20
21108;DHT22;10712;52.944;9.098;2024-03-06T03:25:10;4.20;86.10
21108;DHT22;10712;52.944;9.098;2024-03-06T03:27:40;4.30;85.90
21108;DHT22;10712;52.944;9.098;2024-03-06T03:30:10;4.20;85.90
21108;DHT22;10712;52.944;9.098;2024-03-06T03:32:37;4.30;85.90
21108;DHT22;10712;52.944;9.098;2024-03-06T03:35:06;4.20;85.90
21108;DHT22;10712;52.944;9.098;2024-03-06T03:37:33;4.20;86.00
21108;DHT22;10712;52.944;9.098;2024-03-06T03:39:59;4.20;86.10
21108;DHT22;10712;52.944;9.098;2024-03-06T03:42:25;4.30;86.10
21108;DHT22;10712;52.944;9.098;2024-03-06T03:44:51;4.30;86.10
21108;DHT22;10712;52.944;9.098;2024-03-06T03:47:18;4.30;86.10
21108;DHT22;10712;52.944;9.098;2024-03-06T03:49:44;4.30;86.00
21108;DHT22;10712;52.944;9.098;2024-03-06T03:52:10;4.30;86.00
21108;DHT22;10712;52.944;9.098;2024-03-06T03:54:35;4.30;86.00
21108;DHT22;10712;52.944;9.098;2024-03-06T03:57:01;4.30;86.10
21108;DHT22;10712;52.944;9.098;2024-03-06T03:59:27;4.30;86.10
21108;DHT22;10712;52.944;9.098;2024-03-06T04:01:53;4.30;86.00
21108;DHT22;10712;52.944;9.098;2024-03-06T04:04:19;4.30;86.00
21108;DHT22;10712;52.944;9.098;2024-03-06T04:06:45;4.30;86.10
21108;DHT22;10712;52.944;9.098;2024-03-06T04:09:11;4.30;86.00
21108;DHT22;10712;52.944;9.098;2024-03-06T04:11:37;4.30;85.90
21108;DHT22;10712;52.944;9.098;2024-03-06T04:14:04;4.30;85.70
21108;DHT22;10712;52.944;9.098;2024-03-06T04:16:32;4.30;85.70
21108;DHT22;10712;52.944;9.098;2024-03-06T04:18:59;4.30;85.60
21108;DHT22;10712;52.944;9.098;2024-03-06T04:21:25;4.30;85.70
21108;DHT22;10712;52.944;9.098;2024-03-06T04:23:50;4.40;85.50
21108;DHT22;10712;52.944;9.098;2024-03-06T04:26:16;4.40;85.50
21108;DHT22;10712;52.944;9.098;2024-03-06T04:28:43;4.40;85.40
21108;DHT22;10712;52.944;9.098;2024-03-06T04:31:09;4.40;85.50
21108;DHT22;10712;52.944;9.098;2024-03-06T04:33:35;4.40;85.40
21108;DHT22;10712;52.944;9.098;2024-03-06T04:36:05;4.40;85.20
21108;DHT22;10712;52.944;9.098;2024-03-06T04:38:31;4.40;85.00
21108;DHT22;10712;52.944;9.098;2024-03-06T04:40:57;4.40;84.80
21108;DHT22;10712;52.944;9.098;2024-03-06T04:43:23;4.40;84.60
21108;DHT22;10712;52.944;9.098;2024-03-06T04:45:49;4.40;84.60
21108;DHT22;10712;52.944;9.098;2024-03-06T04:48:15;4.40;84.70
21108;DHT22;10712;52.944;9.098;2024-03-06T04:50:41;4.40;84.80
21108;DHT22;10712;52.944;9.098;2024-03-06T04:53:07;4.40;84.80
21108;DHT22;10712;52.944;9.098;2024-03-06T04:55:33;4.40;85.00
21108;DHT22;10712;52.944;9.098;2024-03-06T04:58:02;4.30;84.90
21108;DHT22;10712;52.944;9.098;2024-03-06T05:00:29;4.30;85.00
21108;DHT22;10712;52.944;9.098;2024-03-06T05:02:55;4.30;85.00
21108;DHT22;10712;52.944;9.098;2024-03-06T05:05:21;4.30;84.90
21108;DHT22;10712;52.944;9.098;2024-03-06T05:07:50;4.30;85.00
21108;DHT22;10712;52.944;9.098;2024-03-06T05:10:17;4.30;85.00
21108;DHT22;10712;52.944;9.098;2024-03-06T05:12:43;4.30;84.90
21108;DHT22;10712;52.944;9.098;2024-03-06T05:15:10;4.30;84.90
21108;DHT22;10712;52.944;9.098;2024-03-06T05:17:36;4.30;84.90
21108;DHT22;10712;52.944;9.098;2024-03-06T05:20:02;4.30;84.90
21108;DHT22;10712;52.944;9.098;2024-03-06T05:22:29;4.30;85.00
21108;DHT22;10712;52.944;9.098;2024-03-06T05:24:56;4.30;85.00
21108;DHT22;10712;52.944;9.098;2024-03-06T05:27:22;4.20;85.00
21108;DHT22;10712;52.944;9.098;2024-03-06T05:29:48;4.20;85.00
21108;DHT22;10712;52.944;9.098;2024-03-06T05:32:13;4.20;85.20
21108;DHT22;10712;52.944;9.098;2024-03-06T05:34:39;4.20;85.40
21108;DHT22;10712;52.944;9.098;2024-03-06T05:37:05;4.20;85.50
21108;DHT22;10712;52.944;9.098;2024-03-06T05:39:31;4.20;85.70
21108;DHT22;10712;52.944;9.098;2024-03-06T05:42:04;4.10;86.00
21108;DHT22;10712;52.944;9.098;2024-03-06T05:44:31;4.10;86.10
21108;DHT22;10712;52.944;9.098;2024-03-06T05:46:58;4.10;86.20
21108;DHT22;10712;52.944;9.098;2024-03-06T05:49:26;4.10;86.30
21108;DHT22;10712;52.944;9.098;2024-03-06T05:51:53;4.10;86.30
21108;DHT22;10712;52.944;9.098;2024-03-06T05:54:22;4.10;86.30
21108;DHT22;10712;52.944;9.098;2024-03-06T05:56:49;4.10;86.30
21108;DHT22;10712;52.944;9.098;2024-03-06T05:59:17;4.10;86.30
21108;DHT22;10712;52.944;9.098;2024-03-06T06:01:44;4.00;86.30
21108;DHT22;10712;52.944;9.098;2024-03-06T06:04:13;4.00;86.50
21108;DHT22;10712;52.944;9.098;2024-03-06T06:06:40;4.00;86.60
21108;DHT22;10712;52.944;9.098;2024-03-06T06:09:06;4.00;86.60
21108;DHT22;10712;52.944;9.098;2024-03-06T06:11:33;4.00;86.70
21108;DHT22;10712;52.944;9.098;2024-03-06T06:13:59;4.00;86.70
21108;DHT22;10712;52.944;9.098;2024-03-06T06:16:25;4.00;86.80
21108;DHT22;10712;52.944;9.098;2024-03-06T06:18:51;4.00;87.00
21108;DHT22;10712;52.944;9.098;2024-03-06T06:21:16;3.90;87.10
21108;DHT22;10712;52.944;9.098;2024-03-06T06:23:44;3.90;87.50
21108;DHT22;10712;52.944;9.098;2024-03-06T06:26:10;3.90;87.60
21108;DHT22;10712;52.944;9.098;2024-03-06T06:28:36;3.80;87.80
21108;DHT22;10712;52.944;9.098;2024-03-06T06:31:05;3.80;87.90
21108;DHT22;10712;52.944;9.098;2024-03-06T06:33:31;3.80;88.00
21108;DHT22;10712;52.944;9.098;2024-03-06T06:35:57;3.80;88.20
21108;DHT22;10712;52.944;9.098;2024-03-06T06:38:23;3.80;88.40
21108;DHT22;10712;52.944;9.098;2024-03-06T06:40:48;3.80;88.50
21108;DHT22;10712;52.944;9.098;2024-03-06T06:43:14;3.80;88.60
21108;DHT22;10712;52.944;9.098;2024-03-06T06:45:41;3.80;88.80
21108;DHT22;10712;52.944;9.098;2024-03-06T06:48:07;3.80;88.90
21108;DHT22;10712;52.944;9.098;2024-03-06T06:50:34;3.80;88.70
21108;DHT22;10712;52.944;9.098;2024-03-06T06:53:00;3.80;88.60
21108;DHT22;10712;52.944;9.098;2024-03-06T06:55:27;3.80;88.60
21108;DHT22;10712;52.944;9.098;2024-03-06T06:57:53;3.80;88.60
21108;DHT22;10712;52.944;9.098;2024-03-06T07:00:19;3.80;88.50
21108;DHT22;10712;52.944;9.098;2024-03-06T07:02:47;3.90;88.50
21108;DHT22;10712;52.944;9.098;2024-03-06T07:05:13;3.90;88.40
21108;DHT22;10712;52.944;9.098;2024-03-06T07:07:40;3.90;88.30
21108;DHT22;10712;52.944;9.098;2024-03-06T07:10:06;3.90;88.30
21108;DHT22;10712;52.944;9.098;2024-03-06T07:12:33;3.90;88.30
21108;DHT22;10712;52.944;9.098;2024-03-06T07:15:00;3.90;88.30
21108;DHT22;10712;52.944;9.098;2024-03-06T07:17:28;3.90;88.30
21108;DHT22;10712;52.944;9.098;2024-03-06T07:19:54;3.90;88.40
21108;DHT22;10712;52.944;9.098;2024-03-06T07:22:19;3.90;88.40
21108;DHT22;10712;52.944;9.098;2024-03-06T07:24:45;4.00;88.20
21108;DHT22;10712;52.944;9.098;2024-03-06T07:27:11;4.00;87.80
21108;DHT22;10712;52.944;9.098;2024-03-06T07:29:37;4.00;87.70
21108;DHT22;10712;52.944;9.098;2024-03-06T07:32:03;4.00;87.90
21108;DHT22;10712;52.944;9.098;2024-03-06T07:34:32;4.00;87.70
21108;DHT22;10712;52.944;9.098;2024-03-06T07:36:58;4.00;87.60
21108;DHT22;10712;52.944;9.098;2024-03-06T07:39:27;4.00;87.50
21108;DHT22;10712;52.944;9.098;2024-03-06T07:41:53;4.00;87.50
21108;DHT22;10712;52.944;9.098;2024-03-06T07:44:20;4.00;87.40
21108;DHT22;10712;52.944;9.098;2024-03-06T07:46:46;4.00;87.50
21108;DHT22;10712;52.944;9.098;2024-03-06T07:49:12;4.00;87.50
21108;DHT22;10712;52.944;9.098;2024-03-06T07:51:38;4.00;87.60
21108;DHT22;10712;52.944;9.098;2024-03-06T07:54:04;4.00;87.50
21108;DHT22;10712;52.944;9.098;2024-03-06T07:56:30;4.00;87.40
21108;DHT22;10712;52.944;9.098;2024-03-06T07:58:56;4.10;87.50
21108;DHT22;10712;52.944;9.098;2024-03-06T08:01:23;4.10;87.50
21108;DHT22;10712;52.944;9.098;2024-03-06T08:03:49;4.10;87.40
21108;DHT22;10712;52.944;9.098;2024-03-06T08:06:15;4.10;87.30
21108;DHT22;10712;52.944;9.098;2024-03-06T08:08:44;4.10;87.30
21108;DHT22;10712;52.944;9.098;2024-03-06T08:11:14;4.10;87.30
21108;DHT22;10712;52.944;9.098;2024-03-06T08:13:40;4.10;87.20
21108;DHT22;10712;52.944;9.098;2024-03-06T08:16:06;4.10;87.50
21108;DHT22;10712;52.944;9.098;2024-03-06T08:18:34;4.10;87.70
21108;DHT22;10712;52.944;9.098;2024-03-06T08:21:01;4.10;87.60
21108;DHT22;10712;52.944;9.098;2024-03-06T08:23:29;4.10;87.50
21108;DHT22;10712;52.944;9.098;2024-03-06T08:25:56;4.10;87.60
21108;DHT22;10712;52.944;9.098;2024-03-06T08:28:21;4.10;87.50
21108;DHT22;10712;52.944;9.098;2024-03-06T08:30:47;4.20;87.60
21108;DHT22;10712;52.944;9.098;2024-03-06T08:33:13;4.20;87.70
21108;DHT22;10712;52.944;9.098;2024-03-06T08:35:39;4.20;87.70
21108;DHT22;10712;52.944;9.098;2024-03-06T08:38:05;4.30;87.60
21108;DHT22;10712;52.944;9.098;2024-03-06T08:40:32;4.40;87.50
21108;DHT22;10712;52.944;9.098;2024-03-06T08:42:58;4.40;87.40
21108;DHT22;10712;52.944;9.098;2024-03-06T08:45:24;4.40;87.40
21108;DHT22;10712;52.944;9.098;2024-03-06T08:47:49;4.50;87.10
21108;DHT22;10712;52.944;9.098;2024-03-06T08:50:16;4.50;87.00
21108;DHT22;10712;52.944;9.098;2024-03-06T08:52:42;4.60;86.80
21108;DHT22;10712;52.944;9.098;2024-03-06T08:55:08;4.60;86.60
21108;DHT22;10712;52.944;9.098;2024-03-06T08:57:38;4.60;86.50
21108;DHT22;10712;52.944;9.098;2024-03-06T09:00:06;4.70;86.50
21108;DHT22;10712;52.944;9.098;2024-03-06T09:02:37;4.70;86.30
21108;DHT22;10712;52.944;9.098;2024-03-06T09:05:07;4.80;85.90
21108;DHT22;10712;52.944;9.098;2024-03-06T09:07:36;4.80;85.70
21108;DHT22;10712;52.944;9.098;2024-03-06T09:10:07;4.80;85.60
21108;DHT22;10712;52.944;9.098;2024-03-06T09:12:33;4.80;85.40
21108;DHT22;10712;52.944;9.098;2024-03-06T09:15:00;4.90;85.20
21108;DHT22;10712;52.944;9.098;2024-03-06T09:17:27;4.90;85.20
21108;DHT22;10712;52.944;9.098;2024-03-06T09:19:53;5.00;85.10
21108;DHT22;10712;52.944;9.098;2024-03-06T09:22:21;5.00;85.00
21108;DHT22;10712;52.944;9.098;2024-03-06T09:24:47;5.10;84.70
21108;DHT22;10712;52.944;9.098;2024-03-06T09:27:14;5.10;84.50
21108;DHT22;10712;52.944;9.098;2024-03-06T09:29:40;5.20;84.40
21108;DHT22;10712;52.944;9.098;2024-03-06T09:32:06;5.20;84.40
21108;DHT22;10712;52.944;9.098;2024-03-06T09:34:32;5.30;84.20
21108;DHT22;10712;52.944;9.098;2024-03-06T09:36:58;5.30;84.10
21108;DHT22;10712;52.944;9.098;2024-03-06T09:39:25;5.30;84.10
21108;DHT22;10712;52.944;9.098;2024-03-06T09:41:51;5.40;84.20
21108;DHT22;10712;52.944;9.098;2024-03-06T09:44:17;5.50;84.10
21108;DHT22;10712;52.944;9.098;2024-03-06T09:46:45;5.50;83.90
21108;DHT22;10712;52.944;9.098;2024-03-06T09:49:17;5.50;83.60
21108;DHT22;10712;52.944;9.098;2024-03-06T09:51:48;5.60;83.40
21108;DHT22;10712;52.944;9.098;2024-03-06T09:54:19;5.60;83.40
21108;DHT22;10712;52.944;9.098;2024-03-06T09:56:46;5.60;83.00
21108;DHT22;10712;52.944;9.098;2024-03-06T09:59:13;5.70;82.70
21108;DHT22;10712;52.944;9.098;2024-03-06T10:02:13;5.70;82.50
21108;DHT22;10712;52.944;9.098;2024-03-06T10:05:03;5.70;82.30
21108;DHT22;10712;52.944;9.098;2024-03-06T10:07:31;5.80;82.20
21108;DHT22;10712;52.944;9.098;2024-03-06T10:09:57;5.80;82.20
21108;DHT22;10712;52.944;9.098;2024-03-06T10:12:23;5.90;82.00
21108;DHT22;10712;52.944;9.098;2024-03-06T10:14:52;6.00;82.00
21108;DHT22;10712;52.944;9.098;2024-03-06T10:17:22;6.00;81.80
21108;DHT22;10712;52.944;9.098;2024-03-06T10:19:48;6.10;81.70
21108;DHT22;10712;52.944;9.098;2024-03-06T10:22:20;6.20;81.40
21108;DHT22;10712;52.944;9.098;2024-03-06T10:24:46;6.20;80.10
21108;DHT22;10712;52.944;9.098;2024-03-06T10:27:16;6.30;79.30
21108;DHT22;10712;52.944;9.098;2024-03-06T10:29:45;6.40;79.10
21108;DHT22;10712;52.944;9.098;2024-03-06T10:32:15;6.50;79.10
21108;DHT22;10712;52.944;9.098;2024-03-06T10:34:44;6.50;79.20
21108;DHT22;10712;52.944;9.098;2024-03-06T10:37:10;6.60;79.30
21108;DHT22;10712;52.944;9.098;2024-03-06T10:39:41;6.70;78.80
21108;DHT22;10712;52.944;9.098;2024-03-06T10:42:12;6.70;77.80
21108;DHT22;10712;52.944;9.098;2024-03-06T10:44:48;6.70;77.80
21108;DHT22;10712;52.944;9.098;2024-03-06T10:47:19;6.80;77.10
21108;DHT22;10712;52.944;9.098;2024-03-06T10:49:45;6.80;77.30
21108;DHT22;10712;52.944;9.098;2024-03-06T10:52:13;6.90;77.30
21108;DHT22;10712;52.944;9.098;2024-03-06T10:54:43;6.90;77.60
21108;DHT22;10712;52.944;9.098;2024-03-06T10:57:12;7.00;77.70
21108;DHT22;10712;52.944;9.098;2024-03-06T10:59:39;7.00;76.90
21108;DHT22;10712;52.944;9.098;2024-03-06T11:02:08;7.00;76.60
21108;DHT22;10712;52.944;9.098;2024-03-06T11:04:36;7.10;75.60
21108;DHT22;10712;52.944;9.098;2024-03-06T11:07:05;7.10;75.30
21108;DHT22;10712;52.944;9.098;2024-03-06T11:09:35;7.10;75.60
21108;DHT22;10712;52.944;9.098;2024-03-06T11:12:06;7.20;74.20
21108;DHT22;10712;52.944;9.098;2024-03-06T11:14:32;7.20;74.00
21108;DHT22;10712;52.944;9.098;2024-03-06T11:19:32;7.20;74.00
21108;DHT22;10712;52.944;9.098;2024-03-06T11:26:00;7.30;74.10
21108;DHT22;10712;52.944;9.098;2024-03-06T11:28:36;7.30;73.60
21108;DHT22;10712;52.944;9.098;2024-03-06T11:31:08;7.30;73.50
21108;DHT22;10712;52.944;9.098;2024-03-06T11:33:43;7.30;73.70
21108;DHT22;10712;52.944;9.098;2024-03-06T11:36:25;7.30;73.60
21108;DHT22;10712;52.944;9.098;2024-03-06T11:39:05;7.40;73.30
21108;DHT22;10712;52.944;9.098;2024-03-06T11:44:01;7.40;72.70
21108;DHT22;10712;52.944;9.098;2024-03-06T11:46:44;7.50;73.00
21108;DHT22;10712;52.944;9.098;2024-03-06T11:49:27;7.50;73.10
21108;DHT22;10712;52.944;9.098;2024-03-06T11:51:59;7.60;72.80
21108;DHT22;10712;52.944;9.098;2024-03-06T11:54:25;7.60;72.60
21108;DHT22;10712;52.944;9.098;2024-03-06T11:56:56;7.60;72.80
21108;DHT22;10712;52.944;9.098;2024-03-06T11:59:24;7.70;72.70
21108;DHT22;10712;52.944;9.098;2024-03-06T12:02:01;7.70;72.30
21108;DHT22;10712;52.944;9.098;2024-03-06T12:04:34;7.80;72.50
21108;DHT22;10712;52.944;9.098;2024-03-06T12:07:04;7.80;72.60
21108;DHT22;10712;52.944;9.098;2024-03-06T12:09:34;7.80;72.90
21108;DHT22;10712;52.944;9.098;2024-03-06T12:12:01;7.80;72.90
21108;DHT22;10712;52.944;9.098;2024-03-06T12:14:27;7.90;72.20
21108;DHT22;10712;52.944;9.098;2024-03-06T12:17:00;8.00;71.90
21108;DHT22;10712;52.944;9.098;2024-03-06T12:19:33;8.00;71.70
21108;DHT22;10712;52.944;9.098;2024-03-06T12:22:03;8.00;71.70
21108;DHT22;10712;52.944;9.098;2024-03-06T12:24:33;8.10;71.60
21108;DHT22;10712;52.944;9.098;2024-03-06T12:27:01;8.10;71.40
21108;DHT22;10712;52.944;9.098;2024-03-06T12:29:32;8.10;71.30
21108;DHT22;10712;52.944;9.098;2024-03-06T12:32:00;8.10;71.60
21108;DHT22;10712;52.944;9.098;2024-03-06T12:34:27;8.10;71.90
21108;DHT22;10712;52.944;9.098;2024-03-06T12:36:53;8.10;72.00
21108;DHT22;10712;52.944;9.098;2024-03-06T12:39:19;8.20;71.90
21108;DHT22;10712;52.944;9.098;2024-03-06T12:41:51;8.20;71.40
21108;DHT22;10712;52.944;9.098;2024-03-06T12:44:19;8.20;71.60
21108;DHT22;10712;52.944;9.098;2024-03-06T12:46:45;8.30;71.90
21108;DHT22;10712;52.944;9.098;2024-03-06T12:49:11;8.30;70.70
21108;DHT22;10712;52.944;9.098;2024-03-06T12:51:37;8.40;70.90
21108;DHT22;10712;52.944;9.098;2024-03-06T12:54:03;8.40;71.00
21108;DHT22;10712;52.944;9.098;2024-03-06T12:56:29;8.50;70.90
21108;DHT22;10712;52.944;9.098;2024-03-06T12:58:55;8.50;70.60
21108;DHT22;10712;52.944;9.098;2024-03-06T13:01:21;8.60;70.30
21108;DHT22;10712;52.944;9.098;2024-03-06T13:03:48;8.70;70.30
21108;DHT22;10712;52.944;9.098;2024-03-06T13:06:14;8.80;69.10
21108;DHT22;10712;52.944;9.098;2024-03-06T13:08:40;8.80;69.00
21108;DHT22;10712;52.944;9.098;2024-03-06T13:11:06;8.90;69.70
21108;DHT22;10712;52.944;9.098;2024-03-06T13:13:32;8.90;69.60
21108;DHT22;10712;52.944;9.098;2024-03-06T13:15:59;8.90;69.30
21108;DHT22;10712;52.944;9.098;2024-03-06T13:18:25;8.90;69.20
21108;DHT22;10712;52.944;9.098;2024-03-06T13:20:51;8.90;68.80
21108;DHT22;10712;52.944;9.098;2024-03-06T13:23:18;9.00;68.20
21108;DHT22;10712;52.944;9.098;2024-03-06T13:25:44;9.00;68.50
21108;DHT22;10712;52.944;9.098;2024-03-06T13:28:11;9.00;69.00
21108;DHT22;10712;52.944;9.098;2024-03-06T13:30:38;9.00;69.20
21108;DHT22;10712;52.944;9.098;2024-03-06T13:33:05;9.10;68.90
21108;DHT22;10712;52.944;9.098;2024-03-06T13:35:31;9.10;68.60
21108;DHT22;10712;52.944;9.098;2024-03-06T13:37:57;9.10;68.30
21108;DHT22;10712;52.944;9.098;2024-03-06T13:40:23;9.10;69.10
21108;DHT22;10712;52.944;9.098;2024-03-06T13:42:51;9.10;69.20
21108;DHT22;10712;52.944;9.098;2024-03-06T13:45:17;9.20;69.20
21108;DHT22;10712;52.944;9.098;2024-03-06T13:47:43;9.10;69.00
21108;DHT22;10712;52.944;9.098;2024-03-06T13:50:12;9.10;69.20
21108;DHT22;10712;52.944;9.098;2024-03-06T13:52:40;9.10;69.10
21108;DHT22;10712;52.944;9.098;2024-03-06T13:55:07;9.10;68.40
21108;DHT22;10712;52.944;9.098;2024-03-06T13:57:34;9.20;68.30
21108;DHT22;10712;52.944;9.098;2024-03-06T14:00:08;9.20;68.40
21108;DHT22;10712;52.944;9.098;2024-03-06T14:02:42;9.20;68.80
21108;DHT22;10712;52.944;9.098;2024-03-06T14:05:08;9.20;68.90
21108;DHT22;10712;52.944;9.098;2024-03-06T14:07:34;9.20;69.20
21108;DHT22;10712;52.944;9.098;2024-03-06T14:10:00;9.20;69.40
21108;DHT22;10712;52.944;9.098;2024-03-06T14:12:26;9.20;69.50
21108;DHT22;10712;52.944;9.098;2024-03-06T14:14:52;9.20;69.50
21108;DHT22;10712;52.944;9.098;2024-03-06T14:17:18;9.20;69.80
21108;DHT22;10712;52.944;9.098;2024-03-06T14:19:43;9.30;69.50
21108;DHT22;10712;52.944;9.098;2024-03-06T14:22:11;9.30;68.50
21108;DHT22;10712;52.944;9.098;2024-03-06T14:24:36;9.30;68.70
21108;DHT22;10712;52.944;9.098;2024-03-06T14:27:03;9.30;68.80
21108;DHT22;10712;52.944;9.098;2024-03-06T14:29:32;9.30;68.90
21108;DHT22;10712;52.944;9.098;2024-03-06T14:31:58;9.40;68.30
21108;DHT22;10712;52.944;9.098;2024-03-06T14:34:24;9.40;68.00
21108;DHT22;10712;52.944;9.098;2024-03-06T14:36:53;9.30;68.00
21108;DHT22;10712;52.944;9.098;2024-03-06T14:39:20;9.30;68.40
21108;DHT22;10712;52.944;9.098;2024-03-06T14:41:51;9.30;68.40
21108;DHT22;10712;52.944;9.098;2024-03-06T14:44:17;9.30;68.50
21108;DHT22;10712;52.944;9.098;2024-03-06T14:46:43;9.30;68.70
21108;DHT22;10712;52.944;9.098;2024-03-06T14:49:09;9.30;68.90
21108;DHT22;10712;52.944;9.098;2024-03-06T14:51:35;9.40;69.10
21108;DHT22;10712;52.944;9.098;2024-03-06T14:54:02;9.40;68.70
21108;DHT22;10712;52.944;9.098;2024-03-06T14:56:28;9.40;68.40
21108;DHT22;10712;52.944;9.098;2024-03-06T14:58:57;9.40;68.30
21108;DHT22;10712;52.944;9.098;2024-03-06T15:01:23;9.40;68.30
21108;DHT22;10712;52.944;9.098;2024-03-06T15:03:53;9.40;68.40
21108;DHT22;10712;52.944;9.098;2024-03-06T15:06:20;9.40;68.30
21108;DHT22;10712;52.944;9.098;2024-03-06T15:08:46;9.30;68.40
21108;DHT22;10712;52.944;9.098;2024-03-06T15:11:12;9.30;68.60
21108;DHT22;10712;52.944;9.098;2024-03-06T15:13:38;9.40;68.80
21108;DHT22;10712;52.944;9.098;2024-03-06T15:16:04;9.30;69.10
21108;DHT22;10712;52.944;9.098;2024-03-06T15:18:30;9.40;69.40
21108;DHT22;10712;52.944;9.098;2024-03-06T15:20:56;9.30;69.60
21108;DHT22;10712;52.944;9.098;2024-03-06T15:23:22;9.30;69.50
21108;DHT22;10712;52.944;9.098;2024-03-06T15:25:48;9.30;69.60
21108;DHT22;10712;52.944;9.098;2024-03-06T15:28:13;9.30;69.30
21108;DHT22;10712;52.944;9.098;2024-03-06T15:30:39;9.20;69.40
21108;DHT22;10712;52.944;9.098;2024-03-06T15:33:07;9.20;69.80
21108;DHT22;10712;52.944;9.098;2024-03-06T15:35:34;9.20;70.10
21108;DHT22;10712;52.944;9.098;2024-03-06T15:38:04;9.10;70.40
21108;DHT22;10712;52.944;9.098;2024-03-06T15:40:32;9.10;70.50
21108;DHT22;10712;52.944;9.098;2024-03-06T15:42:59;9.10;70.40
21108;DHT22;10712;52.944;9.098;2024-03-06T15:45:25;9.10;70.40
21108;DHT22;10712;52.944;9.098;2024-03-06T15:47:52;9.10;70.40
21108;DHT22;10712;52.944;9.098;2024-03-06T15:50:20;9.10;70.50
21108;DHT22;10712;52.944;9.098;2024-03-06T15:52:46;9.00;70.50
21108;DHT22;10712;52.944;9.098;2024-03-06T15:55:12;9.00;70.70